Time;durP1;ratioP1;P1;durP2;ratioP2;P2;SDS_P1;SDS_P2;PMS_P1;PMS_P2;Temp;Humidity;BMP_temperature;BMP_pressure;BME280_temperature;BME280_humidity;BME280_pressure;Samples;Min_cycle;Max_cycle;Signal;HPM_P1;HPM_P2
2023/03/05 00:01:29;;;;;;;18.00;8.80;;;;;;;4.94;80.33;100908.84;5076366;28;20202;-67
2023/03/05 00:03:55;;;;;;;17.17;8.20;;;;;;;4.92;80.14;100906.16;5069938;28;20656;-67
2023/03/05 00:06:24;;;;;;;13.40;8.20;;;;;;;4.94;80.26;100906.22;5075311;28;20199;-67
2023/03/05 00:08:52;;;;;;;13.13;7.90;;;;;;;4.93;80.29;100907.03;5079465;28;20212;-67
2023/03/05 00:11:19;;;;;;;15.83;8.20;;;;;;;4.90;80.85;100906.91;5084461;28;20201;-67
2023/03/05 00:13:46;;;;;;;14.53;7.83;;;;;;;4.91;80.13;100906.09;5076804;28;20195;-67
2023/03/05 00:16:14;;;;;;;12.60;7.50;;;;;;;4.90;80.54;100906.91;5081619;28;20196;-67
2023/03/05 00:18:42;;;;;;;14.07;7.77;;;;;;;4.82;80.30;100903.06;5080198;28;20190;-68
2023/03/05 00:21:23;;;;;;;14.13;7.73;;;;;;;4.86;80.11;100894.50;5080522;28;20194;-67
2023/03/05 00:23:51;;;;;;;14.30;7.80;;;;;;;4.88;79.49;100903.31;5080041;28;20194;-67
2023/03/05 00:26:20;;;;;;;14.23;8.13;;;;;;;4.84;80.41;100902.28;5075845;28;20638;-67
2023/03/05 00:28:48;;;;;;;14.80;7.50;;;;;;;4.90;79.71;100904.28;5078044;28;20218;-67
2023/03/05 00:31:20;;;;;;;12.57;7.30;;;;;;;4.87;79.65;100905.06;5081621;28;20256;-67
2023/03/05 00:33:55;;;;;;;16.57;7.20;;;;;;;4.88;80.12;100904.22;5076993;28;20646;-67
2023/03/05 00:36:23;;;;;;;15.97;7.23;;;;;;;4.82;80.26;100903.97;5087982;28;20194;-67
2023/03/05 00:38:49;;;;;;;16.13;7.23;;;;;;;4.85;79.91;100904.09;5088203;28;20226;-67
2023/03/05 00:41:16;;;;;;;12.33;6.97;;;;;;;4.82;79.93;100901.34;5085054;28;20659;-67
2023/03/05 00:43:44;;;;;;;16.60;7.60;;;;;;;4.82;80.48;100903.97;5086154;28;20198;-67
2023/03/05 00:46:10;;;;;;;17.23;7.70;;;;;;;4.82;80.25;100903.06;5090405;28;20198;-67
2023/03/05 00:48:36;;;;;;;14.53;7.20;;;;;;;4.83;79.83;100894.34;5087380;28;20227;-67
2023/03/05 00:51:03;;;;;;;14.80;7.50;;;;;;;4.82;79.72;100898.72;5089621;28;20241;-67
2023/03/05 00:53:30;;;;;;;18.57;7.97;;;;;;;4.83;79.86;100891.72;5084924;28;20252;-67
2023/03/05 00:55:57;;;;;;;13.93;7.67;;;;;;;4.78;80.01;100882.72;5082751;28;20218;-68
2023/03/05 00:58:24;;;;;;;15.73;8.50;;;;;;;4.81;80.03;100878.53;5084072;28;20195;-67
2023/03/05 01:00:50;;;;;;;16.70;8.37;;;;;;;4.84;80.46;100881.31;5073886;28;20664;-67
2023/03/05 01:03:17;;;;;;;14.67;7.60;;;;;;;4.85;79.90;100876.94;5074387;28;20198;-67
2023/03/05 01:05:44;;;;;;;16.07;7.83;;;;;;;4.81;80.10;100875.94;5074072;28;20224;-67
2023/03/05 01:08:10;;;;;;;16.93;8.47;;;;;;;4.78;80.35;100878.38;5076660;28;20216;-67
2023/03/05 01:10:37;;;;;;;19.33;8.40;;;;;;;4.77;80.30;100873.97;5074045;28;20229;-67
2023/03/05 01:13:03;;;;;;;14.67;8.17;;;;;;;4.76;80.27;100877.41;5074014;28;20212;-67
2023/03/05 01:15:29;;;;;;;16.00;8.93;;;;;;;4.75;80.17;100870.38;5076831;28;20271;-67
2023/03/05 01:17:56;;;;;;;17.23;8.10;;;;;;;4.70;80.54;100871.91;5073072;28;20200;-67
2023/03/05 01:20:22;;;;;;;17.10;8.10;;;;;;;4.71;80.20;100860.56;5079777;28;20231;-67
2023/03/05 01:22:49;;;;;;;13.70;7.40;;;;;;;4.73;80.50;100861.53;5075894;28;20644;-68
2023/03/05 01:25:16;;;;;;;14.23;7.47;;;;;;;4.69;80.61;100860.50;5072888;28;20246;-67
2023/03/05 01:27:43;;;;;;;14.90;7.83;;;;;;;4.71;80.75;100863.19;5073974;28;20219;-67
2023/03/05 01:30:11;;;;;;;15.33;7.53;;;;;;;4.72;80.71;100860.66;5076983;28;20230;-67
2023/03/05 01:32:37;;;;;;;15.13;7.87;;;;;;;4.70;80.74;100856.16;5083017;28;20240;-67
2023/03/05 01:35:05;;;;;;;12.53;6.67;;;;;;;4.73;80.33;100859.81;5068071;28;20315;-67
2023/03/05 01:37:31;;;;;;;16.77;7.73;;;;;;;4.66;81.04;100851.63;5080654;28;20292;-67
2023/03/05 01:39:57;;;;;;;16.03;8.30;;;;;;;4.63;81.04;100849.75;5077149;28;20676;-67
2023/03/05 01:42:24;;;;;;;15.43;7.80;;;;;;;4.72;80.77;100855.41;5077709;28;20230;-67
2023/03/05 01:45:09;;;;;;;17.03;8.13;;;;;;;4.71;80.64;100852.72;5071052;28;20313;-67
2023/03/05 01:47:36;;;;;;;14.30;8.77;;;;;;;4.69;80.73;100841.25;5080308;28;20223;-67
2023/03/05 01:50:06;;;;;;;14.77;8.03;;;;;;;4.64;79.55;100843.69;5075963;28;20199;-67
2023/03/05 01:52:35;;;;;;;19.57;7.90;;;;;;;4.59;80.70;100839.97;5080560;28;20203;-67
2023/03/05 01:55:10;;;;;;;14.80;8.10;;;;;;;4.53;81.01;100833.53;5076012;28;20225;-67
2023/03/05 01:57:41;;;;;;;16.40;8.50;;;;;;;4.52;79.43;100830.03;5080388;28;20207;-67
2023/03/05 02:00:10;;;;;;;15.43;7.90;;;;;;;4.48;79.60;100835.06;5077490;28;20203;-67
2023/03/05 02:02:36;;;;;;;15.63;8.33;;;;;;;4.39;80.60;100825.94;5087810;28;20724;-68
2023/03/05 02:05:08;;;;;;;16.73;8.70;;;;;;;4.38;80.32;100832.00;5078703;28;20306;-67
2023/03/05 02:07:36;;;;;;;14.87;7.53;;;;;;;4.33;80.64;100825.66;5088195;28;20352;-67
2023/03/05 02:10:15;;;;;;;15.10;8.80;;;;;;;4.44;79.61;100820.03;5074476;28;20284;-67
2023/03/05 02:12:42;;;;;;;16.43;7.80;;;;;;;4.40;79.28;100817.28;5087875;28;20197;-67
2023/03/05 02:15:09;;;;;;;13.00;7.83;;;;;;;4.34;80.12;100803.88;5085349;28;20227;-67
2023/03/05 02:17:35;;;;;;;16.80;8.53;;;;;;;4.28;80.56;100800.97;5089831;28;20209;-67
2023/03/05 02:20:26;;;;;;;13.70;7.77;;;;;;;4.27;79.98;100804.41;5087119;28;20198;-67
2023/03/05 02:22:52;;;;;;;16.00;7.87;;;;;;;4.25;80.12;100803.47;5077837;28;20228;-67
2023/03/05 02:25:23;;;;;;;15.73;8.50;;;;;;;4.22;80.80;100798.06;5086065;28;20215;-67
2023/03/05 02:27:58;;;;;;;13.47;7.67;;;;;;;4.30;79.66;100806.28;5080266;28;20209;-67
2023/03/05 02:30:24;;;;;;;12.33;7.47;;;;;;;4.30;79.50;100796.69;5076400;28;20252;-67
2023/03/05 02:32:51;;;;;;;13.63;7.93;;;;;;;4.42;78.54;100795.47;5072908;28;20194;-67
2023/03/05 02:35:18;;;;;;;15.80;7.90;;;;;;;4.36;78.55;100793.44;5077082;28;20217;-67
2023/03/05 02:37:44;;;;;;;13.47;8.43;;;;;;;4.32;78.93;100788.91;5074062;28;20699;-67
2023/03/05 02:40:12;;;;;;;18.33;8.40;;;;;;;4.28;79.17;100793.09;5078640;28;20225;-68
2023/03/05 02:42:39;;;;;;;17.50;8.20;;;;;;;4.26;79.60;100789.53;5074262;28;20206;-67
2023/03/05 02:45:06;;;;;;;16.80;8.10;;;;;;;4.20;79.76;100780.50;5071526;28;20240;-67
2023/03/05 02:47:32;;;;;;;18.17;8.30;;;;;;;4.36;79.12;100789.09;5074490;28;21074;-67
2023/03/05 02:49:58;;;;;;;15.90;7.93;;;;;;;4.39;77.24;100788.34;5074642;28;20255;-67
2023/03/05 02:52:26;;;;;;;15.80;8.00;;;;;;;4.49;77.20;100781.78;5076785;28;20217;-67
2023/03/05 02:54:53;;;;;;;16.10;8.30;;;;;;;4.51;77.08;100780.13;5074961;28;20213;-67
2023/03/05 02:57:19;;;;;;;15.63;8.03;;;;;;;4.50;77.77;100781.84;5081157;28;20201;-67
2023/03/05 02:59:46;;;;;;;14.10;7.63;;;;;;;4.38;78.52;100769.09;5074210;28;20891;-67
2023/03/05 03:02:12;;;;;;;14.17;8.40;;;;;;;4.32;79.37;100773.16;5075790;28;20891;-67
2023/03/05 03:04:39;;;;;;;18.77;8.87;;;;;;;4.26;79.69;100778.13;5067726;28;20231;-67
2023/03/05 03:07:05;;;;;;;17.40;8.93;;;;;;;4.30;79.59;100778.34;5074170;28;20204;-67
2023/03/05 03:09:34;;;;;;;17.63;9.40;;;;;;;4.32;79.26;100771.44;5077334;28;20232;-67
2023/03/05 03:12:02;;;;;;;20.97;9.10;;;;;;;4.32;79.69;100763.56;5072533;28;20197;-67
2023/03/05 03:14:38;;;;;;;17.30;9.30;;;;;;;4.31;79.11;100760.88;5073845;28;20659;-67
2023/03/05 03:17:06;;;;;;;15.63;8.80;;;;;;;4.23;79.50;100765.78;5075219;28;20207;-67
2023/03/05 03:19:32;;;;;;;18.57;9.10;;;;;;;4.15;80.40;100755.81;5075029;28;20191;-67
2023/03/05 03:21:59;;;;;;;20.00;9.47;;;;;;;4.16;80.22;100758.50;5075591;28;20279;-67
2023/03/05 03:24:26;;;;;;;19.27;10.07;;;;;;;4.19;80.34;100765.59;5075030;28;20225;-67
2023/03/05 03:26:52;;;;;;;22.20;9.90;;;;;;;4.19;80.48;100755.09;5076605;28;20616;-67
2023/03/05 03:29:18;;;;;;;17.53;9.30;;;;;;;4.30;79.94;100753.84;5074731;28;20249;-67
2023/03/05 03:31:45;;;;;;;18.37;10.43;;;;;;;4.21;80.04;100756.97;5081578;28;20194;-67
2023/03/05 03:34:13;;;;;;;16.67;9.77;;;;;;;4.24;80.40;100753.59;5077523;28;20233;-67
2023/03/05 03:36:44;;;;;;;18.73;9.93;;;;;;;4.09;80.92;100740.69;5079367;28;20204;-67
2023/03/05 03:39:12;;;;;;;17.27;9.83;;;;;;;4.11;81.08;100746.91;5082934;28;20227;-67
2023/03/05 03:41:51;;;;;;;21.57;9.13;;;;;;;4.08;81.15;100744.16;5087164;28;20206;-67
2023/03/05 03:44:19;;;;;;;19.43;9.37;;;;;;;4.15;81.33;100743.59;5075499;28;20216;-67
2023/03/05 03:46:47;;;;;;;18.13;10.13;;;;;;;4.19;80.89;100752.50;5086981;28;20193;-67
2023/03/05 03:49:22;;;;;;;21.37;10.67;;;;;;;4.09;81.22;100732.84;5086779;28;20687;-68
2023/03/05 03:51:50;;;;;;;22.47;9.57;;;;;;;4.03;81.63;100741.31;5087175;28;20216;-67
2023/03/05 03:54:17;;;;;;;22.07;10.43;;;;;;;4.02;81.63;100725.53;5078984;28;20251;-67
2023/03/05 03:56:44;;;;;;;18.10;9.47;;;;;;;4.12;81.57;100737.31;5081686;28;20205;-67
2023/03/05 03:59:11;;;;;;;17.97;9.43;;;;;;;4.13;81.12;100739.13;5084950;28;20201;-68
2023/03/05 04:01:38;;;;;;;19.57;9.87;;;;;;;4.11;81.27;100733.81;5081263;28;20662;-67
2023/03/05 04:04:06;;;;;;;22.77;10.60;;;;;;;4.06;81.75;100736.22;5074731;28;20690;-67
2023/03/05 04:06:33;;;;;;;21.80;10.50;;;;;;;4.04;82.08;100729.13;5079679;28;20195;-67
2023/03/05 04:08:59;;;;;;;22.57;11.17;;;;;;;4.11;82.12;100732.91;5076343;28;20218;-67
2023/03/05 04:11:25;;;;;;;19.70;10.13;;;;;;;4.09;82.20;100723.25;5076571;28;20291;-67
2023/03/05 04:13:51;;;;;;;20.60;10.13;;;;;;;4.21;82.02;100733.38;5076020;28;20218;-67
2023/03/05 04:16:18;;;;;;;23.50;11.00;;;;;;;4.16;80.98;100727.03;5073427;28;20280;-67
2023/03/05 04:18:46;;;;;;;22.63;10.23;;;;;;;4.18;81.15;100728.00;5076653;28;20198;-67
2023/03/05 04:21:13;;;;;;;23.53;10.63;;;;;;;4.17;81.07;100728.81;5073176;28;20196;-67
2023/03/05 04:23:39;;;;;;;19.67;9.93;;;;;;;4.18;81.38;100728.00;5077736;28;20881;-67
2023/03/05 04:26:06;;;;;;;22.53;10.73;;;;;;;4.15;81.32;100732.22;5078446;28;20293;-67
2023/03/05 04:28:32;;;;;;;22.17;9.93;;;;;;;4.19;81.27;100724.53;5072666;28;20212;-67
2023/03/05 04:30:59;;;;;;;24.20;11.30;;;;;;;4.20;80.47;100721.09;5077511;28;20201;-67
2023/03/05 04:33:25;;;;;;;21.47;10.00;;;;;;;4.21;80.03;100724.63;5073648;28;20226;-67
2023/03/05 04:35:51;;;;;;;20.37;9.37;;;;;;;4.24;79.72;100724.75;5073907;28;20655;-67
2023/03/05 04:38:18;;;;;;;17.00;8.63;;;;;;;4.20;78.85;100721.09;5076542;28;20279;-67
2023/03/05 04:40:45;;;;;;;18.77;8.17;;;;;;;4.15;79.06;100712.13;5076031;28;20260;-67
2023/03/05 04:43:11;;;;;;;16.43;7.80;;;;;;;4.09;78.46;100715.38;5072805;28;20194;-67
2023/03/05 04:45:40;;;;;;;18.07;7.57;;;;;;;4.16;77.53;100716.56;5072141;28;20692;-67
2023/03/05 04:48:06;;;;;;;15.27;6.43;;;;;;;4.09;77.46;100715.38;5072602;28;20638;-67
2023/03/05 04:50:33;;;;;;;14.83;7.10;;;;;;;4.00;78.13;100716.69;5068786;28;20223;-67
2023/03/05 04:52:59;;;;;;;13.63;6.40;;;;;;;4.09;76.64;100717.13;5070825;28;20202;-67
2023/03/05 04:55:26;;;;;;;13.37;6.43;;;;;;;4.01;77.36;100722.03;5072600;28;20296;-67
2023/03/05 04:57:52;;;;;;;15.27;6.93;;;;;;;3.89;77.43;100718.81;5078890;28;20200;-67
2023/03/05 05:00:19;;;;;;;13.77;6.87;;;;;;;3.88;77.55;100716.13;5076134;28;20606;-67
2023/03/05 05:02:48;;;;;;;14.60;6.77;;;;;;;3.99;76.82;100712.28;5072055;28;20210;-67
2023/03/05 05:05:17;;;;;;;13.73;5.63;;;;;;;3.97;76.25;100701.72;5073738;28;20223;-67
2023/03/05 05:07:44;;;;;;;9.20;4.77;;;;;;;4.02;75.02;100707.19;5076166;28;20661;-67
2023/03/05 05:10:11;;;;;;;7.70;4.27;;;;;;;3.98;74.27;100705.25;5076606;28;20213;-67
2023/03/05 05:12:38;;;;;;;11.23;4.33;;;;;;;3.99;74.16;100699.16;5076598;28;20198;-67
2023/03/05 05:15:06;;;;;;;7.13;3.83;;;;;;;3.96;73.70;100696.41;5076081;28;20214;-67
2023/03/05 05:17:33;;;;;;;6.43;3.50;;;;;;;3.84;73.60;100699.38;5079487;28;20194;-67
2023/03/05 05:20:00;;;;;;;8.40;4.07;;;;;;;3.79;74.98;100703.53;5079401;28;20194;-67
2023/03/05 05:22:28;;;;;;;7.20;3.70;;;;;;;3.72;75.29;100702.34;5076834;28;20198;-67
2023/03/05 05:24:55;;;;;;;9.97;4.13;;;;;;;3.68;76.29;100694.28;5073819;28;20223;-67
2023/03/05 05:27:21;;;;;;;6.67;3.50;;;;;;;3.61;76.79;100695.75;5077403;28;20250;-67
2023/03/05 05:29:51;;;;;;;9.33;4.17;;;;;;;3.63;77.00;100694.09;5077169;28;20228;-67
2023/03/05 05:32:19;;;;;;;8.77;3.97;;;;;;;3.57;77.58;100691.16;5073250;28;20199;-67
2023/03/05 05:34:52;;;;;;;7.93;4.20;;;;;;;3.52;77.50;100682.19;5072519;28;20283;-67
2023/03/05 05:37:18;;;;;;;8.27;4.10;;;;;;;3.53;77.46;100688.34;5077876;28;20288;-67
2023/03/05 05:39:48;;;;;;;7.83;3.80;;;;;;;3.53;76.37;100688.34;5072333;28;20231;-67
2023/03/05 05:42:16;;;;;;;8.67;3.93;;;;;;;3.49;76.54;100689.91;5072654;28;20763;-67
2023/03/05 05:44:43;;;;;;;6.63;3.67;;;;;;;3.54;76.60;100690.13;5073808;28;20237;-67
2023/03/05 05:47:10;;;;;;;6.73;3.33;;;;;;;3.46;76.75;100689.78;5077432;28;20212;-67
2023/03/05 05:49:36;;;;;;;7.43;3.40;;;;;;;3.43;77.21;100694.88;5075202;28;20251;-67
2023/03/05 05:52:03;;;;;;;7.87;3.27;;;;;;;3.43;76.92;100687.03;5075016;28;20228;-67
2023/03/05 05:54:29;;;;;;;9.17;3.70;;;;;;;3.44;77.41;100686.19;5073647;28;20222;-67
2023/03/05 05:56:56;;;;;;;8.13;3.50;;;;;;;3.42;77.53;100685.22;5079729;28;20204;-67
2023/03/05 05:59:22;;;;;;;7.73;3.10;;;;;;;3.41;78.15;100683.44;5078576;28;20215;-67
2023/03/05 06:01:48;;;;;;;6.47;3.43;;;;;;;3.43;78.46;100684.41;5077152;28;20292;-67
2023/03/05 06:04:15;;;;;;;8.47;4.50;;;;;;;3.53;78.32;100689.22;5071903;28;20221;-67
2023/03/05 06:06:41;;;;;;;8.97;4.30;;;;;;;3.60;78.42;100682.53;5077032;28;20194;-67
2023/03/05 06:09:10;;;;;;;12.10;4.70;;;;;;;3.50;78.52;100678.63;5077503;28;20217;-67
2023/03/05 06:11:37;;;;;;;9.87;4.67;;;;;;;3.52;79.13;100683.94;5076078;28;20224;-67
2023/03/05 06:14:03;;;;;;;10.40;5.00;;;;;;;3.51;79.28;100682.13;5078907;28;20228;-67
2023/03/05 06:16:30;;;;;;;12.03;5.07;;;;;;;3.50;79.72;100689.09;5079612;28;20300;-67
2023/03/05 06:18:56;;;;;;;9.63;5.63;;;;;;;3.48;80.13;100682.88;5080385;28;20197;-67
2023/03/05 06:21:22;;;;;;;11.63;5.80;;;;;;;3.50;80.65;100681.25;5078621;28;20270;-67
2023/03/05 06:23:49;;;;;;;10.93;6.10;;;;;;;3.44;80.99;100681.84;5074486;28;20287;-67
2023/03/05 06:26:18;;;;;;;12.47;5.67;;;;;;;3.45;81.28;100682.75;5075598;28;20196;-67
2023/03/05 06:28:45;;;;;;;11.13;6.13;;;;;;;3.48;81.61;100685.50;5074958;28;20232;-67
2023/03/05 06:31:17;;;;;;;13.20;6.50;;;;;;;3.51;81.60;100685.66;5079559;28;20282;-67
2023/03/05 06:33:44;;;;;;;15.70;6.30;;;;;;;3.56;81.81;100680.63;5080564;28;20215;-67
2023/03/05 06:36:13;;;;;;;18.63;7.90;;;;;;;3.62;82.41;100678.31;5083152;28;20195;-67
2023/03/05 06:38:40;;;;;;;15.17;6.77;;;;;;;3.64;82.56;100674.94;5083784;28;20210;-67
2023/03/05 06:41:10;;;;;;;13.43;6.90;;;;;;;3.65;82.69;100684.56;5086755;28;20193;-67
2023/03/05 06:43:39;;;;;;;12.40;6.40;;;;;;;3.65;82.02;100679.34;5081618;28;20202;-67
2023/03/05 06:46:14;;;;;;;12.07;6.40;;;;;;;3.64;82.22;100672.31;5080470;28;20578;-67
2023/03/05 06:48:42;;;;;;;16.83;6.93;;;;;;;3.67;82.28;100675.06;5087312;28;20237;-67
2023/03/05 06:51:20;;;;;;;15.07;6.70;;;;;;;3.70;82.64;100680.44;5086050;28;20286;-67
2023/03/05 06:53:47;;;;;;;13.03;6.57;;;;;;;3.72;82.69;100684.03;5082112;28;20242;-67
2023/03/05 06:56:16;;;;;;;12.47;6.20;;;;;;;3.76;82.81;100691.19;5084512;28;20598;-67
2023/03/05 06:58:45;;;;;;;17.27;7.83;;;;;;;3.79;83.11;100693.06;5088317;28;20664;-67
2023/03/05 07:01:15;;;;;;;15.10;7.13;;;;;;;3.79;82.83;100693.06;5081397;28;20609;-68
2023/03/05 07:03:41;;;;;;;16.63;7.17;;;;;;;3.83;83.20;100686.22;5074284;28;20199;-67
2023/03/05 07:06:12;;;;;;;16.97;7.13;;;;;;;3.89;83.33;100681.25;5074081;28;20205;-67
2023/03/05 07:08:38;;;;;;;12.73;7.33;;;;;;;3.95;83.21;100681.53;5071503;28;20283;-67
2023/03/05 07:11:09;;;;;;;14.97;6.93;;;;;;;3.99;83.10;100686.06;5073637;28;20205;-67
2023/03/05 07:13:36;;;;;;;13.10;7.07;;;;;;;4.06;82.40;100683.81;5081629;28;20206;-67
2023/03/05 07:16:12;;;;;;;13.83;7.27;;;;;;;4.10;81.08;100679.59;5068125;28;20738;-67
2023/03/05 07:18:39;;;;;;;17.30;7.40;;;;;;;4.12;81.25;100684.91;5072207;28;20665;-67
2023/03/05 07:21:07;;;;;;;12.33;6.83;;;;;;;4.09;81.40;100681.31;5072191;28;20579;-67
2023/03/05 07:23:34;;;;;;;16.37;7.23;;;;;;;4.09;81.08;100685.66;5072262;28;20861;-67
2023/03/05 07:26:02;;;;;;;13.27;6.80;;;;;;;4.22;79.46;100687.97;5070696;28;20701;-66
2023/03/05 07:28:29;;;;;;;12.80;6.57;;;;;;;4.25;78.77;100687.22;5073799;28;20226;-67
2023/03/05 07:31:07;;;;;;;11.60;5.90;;;;;;;4.24;78.67;100688.06;5074984;28;20218;-67
2023/03/05 07:33:35;;;;;;;13.80;6.60;;;;;;;4.19;79.09;100681.72;5073722;28;20201;-67
2023/03/05 07:36:03;;;;;;;13.80;6.93;;;;;;;4.15;79.12;100677.16;5070647;28;20234;-67
2023/03/05 07:38:31;;;;;;;11.40;5.03;;;;;;;4.16;76.65;100678.97;5077140;28;20194;-69
2023/03/05 07:41:02;;;;;;;8.63;5.07;;;;;;;4.13;76.06;100674.50;5076037;28;20201;-69
2023/03/05 07:43:28;;;;;;;11.30;5.00;;;;;;;4.11;75.97;100673.53;5073615;28;20278;-68
2023/03/05 07:45:55;;;;;;;8.90;4.80;;;;;;;4.13;75.89;100677.09;5072881;28;20285;-68
2023/03/05 07:48:21;;;;;;;9.40;4.87;;;;;;;4.13;75.60;100676.22;5070087;28;20199;-68
2023/03/05 07:50:47;;;;;;;12.00;4.80;;;;;;;4.18;75.35;100670.34;5071438;28;20267;-68
2023/03/05 07:53:14;;;;;;;8.13;4.10;;;;;;;4.24;75.18;100667.06;5073485;28;20197;-68
2023/03/05 07:55:45;;;;;;;9.00;4.50;;;;;;;4.26;75.22;100676.78;5073615;28;20254;-68
2023/03/05 07:58:13;;;;;;;7.27;4.20;;;;;;;4.29;74.69;100679.53;5082450;28;20225;-68
2023/03/05 08:00:40;;;;;;;11.77;4.23;;;;;;;4.22;74.22;100669.63;5068038;28;20724;-67
2023/03/05 08:03:06;;;;;;;9.30;3.73;;;;;;;4.24;73.65;100670.59;5079308;28;20208;-67
2023/03/05 08:05:32;;;;;;;11.27;3.67;;;;;;;4.31;72.77;100669.13;5074521;28;20262;-67
2023/03/05 08:07:59;;;;;;;8.13;3.37;;;;;;;4.28;72.91;100662.03;5082196;28;20261;-67
2023/03/05 08:10:25;;;;;;;8.43;3.87;;;;;;;4.31;72.44;100659.53;5086549;28;20213;-68
2023/03/05 08:12:52;;;;;;;8.90;3.37;;;;;;;4.36;72.03;100664.97;5083214;28;20195;-67
2023/03/05 08:15:18;;;;;;;10.27;4.17;;;;;;;4.39;73.09;100662.47;5088357;28;20225;-68
2023/03/05 08:17:45;;;;;;;7.93;3.63;;;;;;;4.39;71.89;100668.63;5086417;28;20206;-68
2023/03/05 08:20:12;;;;;;;7.10;3.53;;;;;;;4.41;72.17;100663.47;5082022;28;20232;-67
2023/03/05 08:22:38;;;;;;;10.63;3.50;;;;;;;4.41;71.84;100660.84;5079017;28;20224;-68
2023/03/05 08:25:06;;;;;;;8.93;3.50;;;;;;;4.39;72.23;100659.84;5082486;28;20217;-68
2023/03/05 08:27:33;;;;;;;7.80;3.67;;;;;;;4.40;71.72;100661.66;5077070;28;20195;-68
2023/03/05 08:30:01;;;;;;;10.13;4.30;;;;;;;4.50;70.93;100655.09;5091517;28;20293;-67
2023/03/05 08:32:27;;;;;;;7.93;3.93;;;;;;;4.55;70.31;100656.16;5091510;28;20245;-67
2023/03/05 08:35:01;;;;;;;6.93;3.83;;;;;;;4.58;70.64;100656.28;5092792;28;20758;-67
2023/03/05 08:37:28;;;;;;;7.13;4.30;;;;;;;4.60;70.93;100652.91;5091353;28;20197;-67
2023/03/05 08:39:55;;;;;;;10.80;4.40;;;;;;;4.62;70.04;100655.59;5091588;28;20278;-68
2023/03/05 08:42:22;;;;;;;10.50;4.10;;;;;;;4.61;69.64;100640.69;5093280;28;20572;-67
2023/03/05 08:44:48;;;;;;;9.00;3.97;;;;;;;4.67;70.12;100651.41;5088215;28;20617;-68
2023/03/05 08:47:16;;;;;;;8.03;4.10;;;;;;;4.74;69.83;100650.84;5088021;28;20308;-68
2023/03/05 08:49:43;;;;;;;8.73;4.00;;;;;;;4.66;70.07;100644.38;5091132;28;20579;-67
2023/03/05 08:52:10;;;;;;;9.37;3.80;;;;;;;4.73;69.47;100642.06;5091373;28;20199;-68
2023/03/05 08:54:37;;;;;;;6.97;3.80;;;;;;;4.85;69.69;100644.31;5077848;28;20262;-68
2023/03/05 08:57:07;;;;;;;9.83;3.93;;;;;;;4.90;68.40;100645.38;5091565;28;20546;-68
2023/03/05 08:59:33;;;;;;;8.67;3.70;;;;;;;4.92;67.59;100648.97;5092231;28;20191;-68
2023/03/05 09:02:01;;;;;;;7.57;3.70;;;;;;;4.77;68.44;100644.81;5077496;28;20286;-68
2023/03/05 09:04:30;;;;;;;12.90;4.23;;;;;;;4.86;68.38;100648.72;5083210;28;20223;-68
2023/03/05 09:06:56;;;;;;;6.80;3.47;;;;;;;4.86;67.90;100640.84;5080319;28;22050;-67
2023/03/05 09:09:23;;;;;;;8.40;3.83;;;;;;;4.92;67.59;100646.34;5079821;28;20223;-68
2023/03/05 09:11:51;;;;;;;9.37;3.83;;;;;;;4.91;68.10;100647.19;5076880;28;20282;-68
2023/03/05 09:14:17;;;;;;;6.53;3.23;;;;;;;4.83;68.01;100645.09;5077935;28;20307;-67
2023/03/05 09:16:43;;;;;;;9.57;4.00;;;;;;;4.72;68.58;100642.91;5073851;28;20676;-68
2023/03/05 09:19:11;;;;;;;6.37;3.50;;;;;;;4.68;69.10;100641.00;5082908;28;20215;-67
2023/03/05 09:21:37;;;;;;;8.23;3.93;;;;;;;4.70;69.05;100641.94;5082534;28;20220;-68
2023/03/05 09:24:04;;;;;;;8.70;3.93;;;;;;;4.51;69.80;100641.13;5074067;28;20226;-67
2023/03/05 09:26:30;;;;;;;8.27;4.10;;;;;;;4.64;70.48;100640.81;5081565;28;20223;-68
2023/03/05 09:28:57;;;;;;;10.10;3.73;;;;;;;4.70;70.54;100641.06;5080275;28;20206;-67
2023/03/05 09:31:23;;;;;;;7.57;3.93;;;;;;;4.63;70.48;100639.91;5080970;28;20658;-67
2023/03/05 09:33:50;;;;;;;8.27;4.47;;;;;;;4.56;72.14;100647.47;5071018;28;20204;-68
2023/03/05 09:36:25;;;;;;;10.17;4.40;;;;;;;4.53;72.53;100634.22;5082264;28;20193;-67
2023/03/05 09:38:52;;;;;;;8.97;4.10;;;;;;;4.77;72.88;100632.59;5073850;28;20199;-67
2023/03/05 09:41:32;;;;;;;8.00;4.37;;;;;;;4.94;70.94;100628.94;5077464;28;20692;-67
2023/03/05 09:44:14;;;;;;;9.23;4.60;;;;;;;5.06;69.12;100618.00;5073145;28;20224;-67
2023/03/05 09:47:12;;;;;;;10.23;4.70;;;;;;;5.18;68.99;100621.09;5080215;28;20233;-67
2023/03/05 09:49:42;;;;;;;9.43;4.33;;;;;;;5.35;68.70;100616.50;5077899;28;20254;-68
2023/03/05 09:52:19;;;;;;;10.77;5.00;;;;;;;5.65;68.16;100612.41;5080299;28;20206;-67
2023/03/05 09:54:52;;;;;;;8.10;4.13;;;;;;;5.75;65.95;100613.63;5075251;28;20221;-68
2023/03/05 09:57:24;;;;;;;7.83;3.83;;;;;;;5.84;65.69;100613.06;5078512;28;20198;-68
2023/03/05 10:00:00;;;;;;;8.23;3.97;;;;;;;5.95;65.44;100612.63;5076960;28;20197;-67
2023/03/05 10:02:34;;;;;;;8.17;3.90;;;;;;;5.86;65.32;100607.00;5076977;28;20217;-68
2023/03/05 10:05:17;;;;;;;7.50;4.17;;;;;;;6.09;64.57;100607.88;5077103;28;20252;-67
2023/03/05 10:07:53;;;;;;;9.20;4.63;;;;;;;5.96;65.22;100601.25;5081341;28;20228;-68
2023/03/05 10:10:46;;;;;;;9.50;4.30;;;;;;;6.11;65.42;100600.03;5077543;28;20284;-68
2023/03/05 10:13:21;;;;;;;7.67;4.13;;;;;;;5.90;64.83;100600.16;5081270;28;20228;-68
2023/03/05 10:15:50;;;;;;;7.83;3.97;;;;;;;6.00;65.09;100598.75;5073840;28;20218;-68
2023/03/05 10:18:29;;;;;;;8.57;4.00;;;;;;;5.90;65.46;100594.91;5079160;28;20197;-68
2023/03/05 10:20:58;;;;;;;9.10;4.30;;;;;;;5.95;65.46;100594.22;5076238;28;20692;-68
2023/03/05 10:23:33;;;;;;;9.67;4.30;;;;;;;5.96;65.04;100589.84;5074164;28;20224;-68
2023/03/05 10:26:12;;;;;;;7.57;3.77;;;;;;;5.75;65.06;100582.09;5072219;28;20959;-68
2023/03/05 10:28:45;;;;;;;7.57;3.47;;;;;;;5.59;65.60;100577.09;5079222;28;20201;-68
2023/03/05 10:31:20;;;;;;;6.90;3.27;;;;;;;5.61;65.76;100578.09;5079853;28;20295;-68
2023/03/05 10:34:15;;;;;;;6.20;3.33;;;;;;;5.47;65.33;100577.56;5071812;28;20240;-67
2023/03/05 10:37:09;;;;;;;6.20;3.37;;;;;;;5.63;66.57;100569.41;5075420;28;20250;-68
2023/03/05 10:39:44;;;;;;;10.10;3.87;;;;;;;5.64;66.36;100572.94;5072910;28;20204;-68
2023/03/05 10:42:35;;;;;;;6.73;3.10;;;;;;;5.72;65.66;100567.94;5078315;28;20225;-68
2023/03/05 10:45:14;;;;;;;7.80;3.83;;;;;;;5.58;66.32;100570.97;5074945;28;20271;-68
2023/03/05 10:48:02;;;;;;;7.73;3.70;;;;;;;5.72;66.54;100566.22;5075614;28;20194;-68
2023/03/05 10:50:39;;;;;;;6.03;3.20;;;;;;;5.61;66.40;100562.31;5077122;28;20303;-68
2023/03/05 10:53:09;;;;;;;8.83;3.77;;;;;;;5.58;66.63;100557.81;5078676;28;20543;-68
2023/03/05 10:55:35;;;;;;;6.13;3.23;;;;;;;5.58;66.65;100551.69;5076626;28;21039;-68
2023/03/05 10:58:11;;;;;;;7.43;3.47;;;;;;;5.67;67.07;100554.66;5077841;28;20360;-68
2023/03/05 11:00:37;;;;;;;6.87;3.23;;;;;;;5.81;66.08;100555.13;5076325;28;20274;-68
2023/03/05 11:03:07;;;;;;;7.80;3.50;;;;;;;6.08;65.87;100550.88;5075596;28;20198;-68
2023/03/05 11:05:37;;;;;;;7.20;3.50;;;;;;;6.57;64.56;100545.47;5074684;28;20217;-68
2023/03/05 11:08:23;;;;;;;9.07;3.47;;;;;;;6.73;63.08;100544.22;5075844;28;20611;-68
2023/03/05 11:11:15;;;;;;;7.67;3.67;;;;;;;6.34;63.14;100538.56;5074647;28;20221;-68
2023/03/05 11:13:57;;;;;;;6.20;3.37;;;;;;;6.21;64.18;100547.78;5074624;28;20237;-68
2023/03/05 11:16:29;;;;;;;6.00;3.00;;;;;;;6.28;63.47;100535.75;5074598;28;20286;-68
2023/03/05 11:19:19;;;;;;;7.37;3.20;;;;;;;6.32;63.95;100535.00;5072958;28;20579;-68
2023/03/05 11:22:05;;;;;;;6.87;3.00;;;;;;;6.40;63.02;100528.25;5074811;28;20194;-68
2023/03/05 11:24:32;;;;;;;6.03;3.37;;;;;;;6.33;62.92;100528.88;5073604;28;20593;-68
2023/03/05 11:26:59;;;;;;;5.97;3.10;;;;;;;6.41;63.92;100530.06;5073828;28;20209;-69
2023/03/05 11:29:29;;;;;;;6.87;3.03;;;;;;;6.75;61.54;100510.03;5072385;28;20711;-68
2023/03/05 11:32:14;;;;;;;4.17;2.77;;;;;;;7.13;61.32;100508.53;5073966;28;20316;-68
2023/03/05 11:34:41;;;;;;;5.10;2.60;;;;;;;7.50;60.19;100507.84;5072064;28;20643;-68
2023/03/05 11:37:21;;;;;;;5.17;2.70;;;;;;;7.60;58.74;100509.88;5077493;28;20231;-68